Time;durP1;ratioP1;P1;durP2;ratioP2;P2;SDS_P1;SDS_P2;PMS_P1;PMS_P2;Temp;Humidity;BMP_temperature;BMP_pressure;BME280_temperature;BME280_humidity;BME280_pressure;Samples;Min_cycle;Max_cycle;Signal;HPM_P1;HPM_P2
2023/09/04 00:02:07;;;;;;;0.90;0.90;;;14.20;1.00;;;;;;4959572;28;20601;-92
2023/09/04 00:04:33;;;;;;;1.70;1.37;;;14.20;1.00;;;;;;4942806;28;20141;-92
2023/09/04 00:06:59;;;;;;;0.90;0.90;;;14.10;1.00;;;;;;4943261;28;20498;-92
2023/09/04 00:09:25;;;;;;;1.20;1.10;;;14.10;1.00;;;;;;4943257;28;20058;-92
2023/09/04 00:11:51;;;;;;;1.20;1.10;;;14.00;1.00;;;;;;4958019;28;20082;-92
2023/09/04 00:14:16;;;;;;;1.20;1.10;;;14.00;1.00;;;;;;4942568;28;20313;-92
2023/09/04 00:16:42;;;;;;;1.20;1.10;;;14.00;1.00;;;;;;4927839;28;20402;-92
2023/09/04 00:19:08;;;;;;;1.20;1.10;;;14.00;1.00;;;;;;4943350;28;20050;-92
2023/09/04 00:21:44;;;;;;;;;;;;;;;;;;;;;
2023/09/04 00:24:10;;;;;;;2.38;1.20;;;14.00;1.00;;;;;;4959215;28;20054;-92
2023/09/04 00:26:36;;;;;;;3.30;1.20;;;14.00;1.00;;;;;;4942846;28;20051;-92
2023/09/04 00:29:05;;;;;;;1.55;1.13;;;13.90;1.00;;;;;;4943128;28;20057;-91
2023/09/04 00:31:31;;;;;;;1.77;1.23;;;14.00;1.00;;;;;;4958487;28;20047;-91
2023/09/04 00:33:57;;;;;;;2.47;1.37;;;13.80;1.00;;;;;;4959025;28;20042;-91
2023/09/04 00:36:23;;;;;;;1.65;1.23;;;13.80;1.00;;;;;;4926659;28;20356;-91
2023/09/04 00:38:48;;;;;;;1.45;1.23;;;13.80;1.00;;;;;;4927407;28;20054;-93
2023/09/04 00:41:15;;;;;;;2.17;0.75;;;13.80;1.00;;;;;;4942642;28;20043;-93
2023/09/04 00:43:41;;;;;;;1.00;0.82;;;13.70;1.00;;;;;;4942838;28;20098;-92
2023/09/04 00:46:08;;;;;;;0.95;0.95;;;13.70;1.00;;;;;;4943073;28;20093;-91
2023/09/04 00:48:34;;;;;;;1.15;1.05;;;13.70;1.00;;;;;;4926468;28;20051;-91
2023/09/04 00:51:00;;;;;;;1.45;1.35;;;13.60;1.00;;;;;;4926886;28;20054;-92
2023/09/04 00:53:27;;;;;;;0.95;0.95;;;13.60;1.00;;;;;;4942314;28;20401;-92
2023/09/04 00:55:53;;;;;;;3.80;1.02;;;12.80;1.00;;;;;;4942885;28;20057;-92
2023/09/04 00:58:19;;;;;;;1.55;1.40;;;13.50;1.00;;;;;;4958260;28;20051;-92
2023/09/04 01:00:46;;;;;;;1.37;1.13;;;13.50;1.00;;;;;;4958689;28;20058;-92
2023/09/04 01:03:12;;;;;;;2.53;1.17;;;13.60;1.00;;;;;;4926616;28;20290;-92
2023/09/04 01:05:38;;;;;;;1.75;1.45;;;14.30;1.00;;;;;;4941917;28;20448;-91
2023/09/04 01:08:05;;;;;;;1.45;1.30;;;13.50;1.00;;;;;;4958596;28;20074;-91
2023/09/04 01:11:23;;;;;;;3.30;1.40;;;13.50;1.00;;;;;;4942065;28;20054;-91
2023/09/04 01:13:56;;;;;;;2.15;1.25;;;13.40;1.00;;;;;;4942514;28;20125;-91
2023/09/04 01:16:33;;;;;;;2.50;1.17;;;13.40;1.00;;;;;;4941734;28;20049;-91
2023/09/04 01:19:02;;;;;;;1.67;1.50;;;13.30;1.00;;;;;;4941848;28;20571;-92
2023/09/04 01:21:28;;;;;;;1.50;1.40;;;13.20;1.00;;;;;;4957410;28;20519;-91
2023/09/04 01:23:54;;;;;;;2.33;1.40;;;13.20;1.00;;;;;;4925752;28;20101;-91
2023/09/04 01:26:27;;;;;;;2.30;1.50;;;13.20;1.00;;;;;;4926112;28;20505;-92
2023/09/04 01:29:20;;;;;;;2.22;1.20;;;13.20;1.00;;;;;;4942017;28;20050;-92
2023/09/04 01:32:03;;;;;;;1.67;1.55;;;13.20;1.00;;;;;;4942030;28;20448;-91
2023/09/04 01:34:36;;;;;;;1.17;1.05;;;13.10;1.00;;;;;;4941444;28;20525;-92
2023/09/04 01:37:03;;;;;;;3.97;1.27;;;13.20;1.00;;;;;;4957443;28;20055;-92
2023/09/04 01:39:29;;;;;;;3.40;1.20;;;13.00;1.00;;;;;;4941496;28;20053;-92
2023/09/04 01:41:56;;;;;;;1.55;1.45;;;12.40;1.00;;;;;;4941262;28;20047;-92
2023/09/04 01:44:21;;;;;;;1.98;1.55;;;13.00;1.00;;;;;;4957780;28;20091;-92
2023/09/04 01:46:47;;;;;;;1.90;1.27;;;13.00;1.00;;;;;;4941629;28;20088;-92
2023/09/04 01:49:13;;;;;;;1.75;1.55;;;13.10;1.00;;;;;;4941868;28;20047;-92
2023/09/04 01:51:39;;;;;;;2.43;1.30;;;12.90;1.00;;;;;;4957359;28;20051;-92
2023/09/04 01:54:05;;;;;;;1.70;1.60;;;12.90;1.00;;;;;;4925788;28;20051;-91
2023/09/04 01:56:34;;;;;;;2.33;1.88;;;12.90;1.00;;;;;;4957323;28;20047;-91
2023/09/04 01:59:05;;;;;;;2.03;1.40;;;12.80;1.00;;;;;;4941897;28;20142;-91
2023/09/04 02:01:31;;;;;;;2.25;1.50;;;12.80;1.00;;;;;;4925307;28;20051;-92
2023/09/04 02:04:05;;;;;;;2.30;1.33;;;12.80;1.00;;;;;;4941436;28;20058;-91
2023/09/04 02:06:31;;;;;;;2.97;1.40;;;12.70;1.00;;;;;;4940950;28;20290;-92
2023/09/04 02:08:57;;;;;;;3.03;1.77;;;12.70;1.00;;;;;;4957410;28;20108;-92
2023/09/04 02:11:28;;;;;;;2.08;1.77;;;12.70;1.00;;;;;;4925754;28;20086;-92
2023/09/04 02:13:54;;;;;;;4.03;1.50;;;12.60;1.00;;;;;;4925679;28;20078;-92
2023/09/04 02:16:22;;;;;;;2.53;1.50;;;12.60;1.00;;;;;;4957641;28;20074;-91
2023/09/04 02:18:56;;;;;;;3.55;1.60;;;12.70;1.00;;;;;;4941108;28;20054;-92
2023/09/04 02:21:24;;;;;;;1.88;1.77;;;12.60;1.00;;;;;;4940922;28;20141;-91
2023/09/04 02:23:50;;;;;;;3.20;1.60;;;12.50;1.00;;;;;;4941020;28;20461;-92
2023/09/04 02:26:18;;;;;;;3.20;1.58;;;12.60;1.00;;;;;;4925384;28;20043;-91
2023/09/04 02:28:44;;;;;;;1.70;1.60;;;12.60;1.00;;;;;;4956791;28;20097;-91
2023/09/04 02:31:11;;;;;;;2.03;1.70;;;12.60;1.00;;;;;;4925306;28;20052;-91
2023/09/04 02:33:37;;;;;;;4.05;1.75;;;12.50;1.00;;;;;;4940634;28;20054;-92
2023/09/04 02:36:03;;;;;;;2.55;1.77;;;12.50;1.00;;;;;;4927504;28;20557;-92
2023/09/04 02:38:29;;;;;;;2.15;1.60;;;12.70;1.00;;;;;;4945376;28;20101;-92
2023/09/04 02:40:55;;;;;;;1.67;1.55;;;12.40;1.00;;;;;;4944963;28;20055;-91
2023/09/04 02:43:21;;;;;;;2.00;1.80;;;12.30;1.00;;;;;;4945162;28;20058;-92
2023/09/04 02:45:47;;;;;;;3.03;1.85;;;12.40;1.00;;;;;;4960640;28;20474;-91
2023/09/04 02:48:13;;;;;;;2.00;1.90;;;12.40;1.00;;;;;;4944758;28;20047;-92
2023/09/04 02:50:50;;;;;;;;;;;;;;;;;;;;;
2023/09/04 02:53:16;;;;;;;3.70;1.92;;;12.30;1.00;;;;;;4960756;28;20057;-91
2023/09/04 02:55:49;;;;;;;3.73;1.80;;;12.40;1.00;;;;;;4944678;28;20043;-92
2023/09/04 02:58:15;;;;;;;2.13;1.92;;;12.30;1.00;;;;;;4929105;28;20294;-92
2023/09/04 03:00:44;;;;;;;4.60;1.90;;;12.30;1.00;;;;;;4928641;28;20046;-91
2023/09/04 03:03:12;;;;;;;2.10;1.90;;;12.50;1.00;;;;;;4944877;28;20401;-92
2023/09/04 03:05:46;;;;;;;2.47;2.05;;;12.20;1.00;;;;;;4944168;28;20057;-92
2023/09/04 03:08:14;;;;;;;2.25;2.05;;;12.20;1.00;;;;;;4961131;28;20043;-92
2023/09/04 03:10:42;;;;;;;3.60;2.03;;;12.20;1.00;;;;;;4944244;28;20141;-92
2023/09/04 03:13:08;;;;;;;3.67;2.30;;;12.10;1.00;;;;;;4960629;28;20039;-91
2023/09/04 03:15:37;;;;;;;3.50;2.30;;;12.20;1.00;;;;;;4928616;28;20105;-91
2023/09/04 03:18:05;;;;;;;3.47;2.50;;;12.20;1.00;;;;;;4960333;28;20045;-91
2023/09/04 03:20:31;;;;;;;4.10;2.20;;;12.10;1.00;;;;;;4944423;28;20055;-91
2023/09/04 03:22:57;;;;;;;2.73;2.20;;;12.20;1.00;;;;;;4943935;28;20105;-91
2023/09/04 03:25:25;;;;;;;6.57;2.63;;;12.20;1.00;;;;;;4960261;28;20293;-91
2023/09/04 03:27:51;;;;;;;3.15;2.08;;;12.10;1.00;;;;;;4943855;28;20401;-92
2023/09/04 03:30:16;;;;;;;2.27;2.07;;;12.10;1.00;;;;;;4943712;28;20039;-92
2023/09/04 03:32:45;;;;;;;2.33;2.13;;;12.10;2.10;;;;;;4943492;28;20186;-91
2023/09/04 03:35:18;;;;;;;1.70;1.58;;;12.00;4.10;;;;;;4943403;28;20042;-91
2023/09/04 03:37:44;;;;;;;3.05;1.75;;;12.90;4.30;;;;;;4943721;28;20450;-91
2023/09/04 03:40:24;;;;;;;8.38;2.05;;;12.10;4.30;;;;;;4943477;28;20085;-91
2023/09/04 03:42:55;;;;;;;4.20;2.00;;;12.10;2.50;;;;;;4943598;28;20039;-91
2023/09/04 03:45:23;;;;;;;3.83;1.75;;;12.00;3.00;;;;;;4943848;28;20049;-92
2023/09/04 03:47:49;;;;;;;3.45;2.10;;;12.00;1.00;;;;;;4959169;28;20386;-92
2023/09/04 03:50:18;;;;;;;2.90;2.00;;;12.00;1.00;;;;;;4960069;28;20058;-91
2023/09/04 03:52:47;;;;;;;4.45;1.88;;;11.90;1.00;;;;;;4959028;28;20553;-91
2023/09/04 03:55:15;;;;;;;2.88;2.22;;;11.90;1.00;;;;;;4943622;28;20042;-91
2023/09/04 03:57:47;;;;;;;2.40;2.05;;;11.90;1.00;;;;;;4959782;28;20213;-91
2023/09/04 04:00:17;;;;;;;2.40;2.10;;;12.60;1.00;;;;;;4944153;28;20054;-91
2023/09/04 04:02:44;;;;;;;1.92;1.77;;;11.80;1.00;;;;;;4927854;28;20050;-91
2023/09/04 04:05:14;;;;;;;1.92;1.83;;;11.70;1.00;;;;;;4959268;28;20046;-92
2023/09/04 04:07:42;;;;;;;2.95;2.30;;;11.80;1.00;;;;;;4943321;28;20065;-91
2023/09/04 04:10:11;;;;;;;2.53;2.33;;;11.80;1.00;;;;;;4943560;28;20054;-91
2023/09/04 04:12:37;;;;;;;3.33;2.50;;;11.70;1.00;;;;;;4943857;28;20050;-91
2023/09/04 04:15:06;;;;;;;2.60;2.40;;;11.70;1.00;;;;;;4942917;28;20410;-91
2023/09/04 04:17:35;;;;;;;3.08;2.13;;;11.70;1.00;;;;;;4943251;28;20054;-91
2023/09/04 04:20:06;;;;;;;2.05;1.90;;;11.70;1.00;;;;;;4942806;28;20054;-92
2023/09/04 04:22:33;;;;;;;2.17;2.00;;;11.70;1.00;;;;;;4943465;28;20043;-91
2023/09/04 04:24:59;;;;;;;3.00;2.33;;;11.70;1.00;;;;;;4942982;28;20497;-91
2023/09/04 04:27:24;;;;;;;3.53;2.37;;;11.60;1.00;;;;;;4927547;28;20085;-91
2023/09/04 04:29:52;;;;;;;3.63;2.30;;;11.60;1.00;;;;;;4942925;28;20043;-91
2023/09/04 04:32:20;;;;;;;3.25;2.35;;;11.60;1.00;;;;;;4942914;28;20047;-91
2023/09/04 04:34:46;;;;;;;2.80;2.60;;;11.60;1.00;;;;;;4927232;28;20042;-93
2023/09/04 04:37:12;;;;;;;4.30;2.45;;;11.50;1.00;;;;;;4943308;28;20097;-91
2023/09/04 04:39:38;;;;;;;1.98;1.77;;;11.50;1.00;;;;;;4959215;28;20397;-91
2023/09/04 04:42:04;;;;;;;2.57;1.77;;;11.50;1.00;;;;;;4942501;28;20208;-91
2023/09/04 04:44:32;;;;;;;3.60;2.25;;;11.50;1.00;;;;;;4943046;28;20053;-91
2023/09/04 04:47:01;;;;;;;3.63;2.13;;;10.50;1.00;;;;;;4958581;28;20043;-91
2023/09/04 04:49:26;;;;;;;4.35;2.45;;;11.40;1.00;;;;;;4958991;28;20050;-91
2023/09/04 04:51:54;;;;;;;4.70;2.50;;;11.50;1.00;;;;;;4942092;28;20049;-91
2023/09/04 04:54:20;;;;;;;3.13;2.38;;;11.40;1.00;;;;;;4942620;28;20054;-92
2023/09/04 04:56:48;;;;;;;3.28;2.20;;;10.60;1.00;;;;;;4927008;28;20481;-91
2023/09/04 04:59:14;;;;;;;4.30;2.83;;;11.50;1.00;;;;;;4941903;28;20086;-91
2023/09/04 05:01:42;;;;;;;5.55;2.70;;;10.20;1.00;;;;;;4942617;28;20055;-91
2023/09/04 05:04:10;;;;;;;2.92;2.45;;;11.40;1.00;;;;;;4958174;28;20046;-91
2023/09/04 05:06:36;;;;;;;3.17;2.67;;;11.60;2.70;;;;;;4942250;28;20406;-91
2023/09/04 05:09:05;;;;;;;3.57;2.73;;;11.40;3.60;;;;;;4926494;28;20046;-91
2023/09/04 05:11:31;;;;;;;3.00;2.70;;;11.50;4.50;;;;;;4942376;28;20102;-91
2023/09/04 05:13:57;;;;;;;5.07;2.23;;;11.50;4.70;;;;;;4957235;28;20054;-91
2023/09/04 05:16:26;;;;;;;6.13;2.72;;;11.40;4.80;;;;;;4926621;28;20286;-91
2023/09/04 05:18:52;;;;;;;4.85;3.13;;;11.50;5.50;;;;;;4926860;28;20133;-91
2023/09/04 05:21:25;;;;;;;3.30;2.40;;;11.50;6.00;;;;;;4942267;28;20050;-91
2023/09/04 05:23:52;;;;;;;6.50;2.90;;;11.40;7.50;;;;;;4927350;28;20477;-91
2023/09/04 05:26:17;;;;;;;;;;;11.60;8.70;;;;;;4941980;28;20485;-91
2023/09/04 05:28:48;;;;;;;5.13;3.05;;;11.50;15.50;;;;;;4942041;28;19937;-91
2023/09/04 05:31:14;;;;;;;5.80;3.00;;;11.60;10.20;;;;;;4942175;28;20603;-91
2023/09/04 05:33:40;;;;;;;2.80;2.60;;;11.60;11.20;;;;;;4957837;28;20524;-91
2023/09/04 05:36:10;;;;;;;5.87;2.77;;;11.60;12.80;;;;;;4941601;28;20505;-89
2023/09/04 05:38:43;;;;;;;3.55;3.15;;;11.60;15.70;;;;;;4941798;28;20298;-91
2023/09/04 05:41:09;;;;;;;4.22;3.03;;;11.70;18.80;;;;;;4941578;28;20054;-90
2023/09/04 05:43:35;;;;;;;3.60;3.27;;;11.80;23.20;;;;;;4941666;28;20051;-91
2023/09/04 05:46:03;;;;;;;3.93;3.10;;;12.00;29.00;;;;;;4941278;28;20286;-91
2023/09/04 05:48:31;;;;;;;3.45;3.15;;;12.20;35.60;;;;;;4957386;28;20047;-91
2023/09/04 05:50:58;;;;;;;3.72;3.10;;;13.30;38.00;;;;;;4941682;28;20139;-90
2023/09/04 05:53:25;;;;;;;5.07;4.40;;;12.80;34.20;;;;;;4941472;28;20083;-91
2023/09/04 05:56:04;;;;;;;4.68;4.28;;;13.20;29.30;;;;;;4925494;28;20051;-91
2023/09/04 05:58:33;;;;;;;4.75;4.35;;;13.70;19.00;;;;;;4941738;28;20061;-91
2023/09/04 06:01:01;;;;;;;5.30;4.53;;;13.10;16.10;;;;;;4925495;28;20063;-92
2023/09/04 06:03:32;;;;;;;7.57;5.57;;;14.40;4.70;;;;;;4941786;28;20047;-91
2023/09/04 06:05:57;;;;;;;7.40;6.65;;;14.90;1.00;;;;;;4925725;28;20050;-91
2023/09/04 06:08:40;;;;;;;6.15;5.55;;;15.20;1.00;;;;;;4956916;28;20097;-91
2023/09/04 06:11:15;;;;;;;6.60;5.75;;;15.60;1.00;;;;;;4940897;28;20042;-91
2023/09/04 06:13:43;;;;;;;7.68;6.80;;;16.10;1.00;;;;;;4929155;28;20050;-92
2023/09/04 06:16:10;;;;;;;7.65;6.82;;;16.40;1.00;;;;;;4940628;28;20568;-92
2023/09/04 06:18:38;;;;;;;8.35;6.57;;;16.60;1.00;;;;;;4941641;28;20050;-91
2023/09/04 06:21:06;;;;;;;7.55;6.60;;;16.90;1.00;;;;;;4956465;28;20549;-91
2023/09/04 06:23:32;;;;;;;8.45;7.65;;;17.00;1.00;;;;;;4957308;28;20137;-91
2023/09/04 06:26:06;;;;;;;9.40;8.40;;;17.10;1.00;;;;;;4941128;28;20565;-91
2023/09/04 06:28:34;;;;;;;8.57;7.68;;;17.20;1.00;;;;;;4925690;28;20047;-92
2023/09/04 06:31:05;;;;;;;8.90;7.90;;;17.30;1.00;;;;;;4957184;28;20050;-91
2023/09/04 06:33:37;;;;;;;12.18;7.95;;;17.30;1.00;;;;;;4941304;28;20185;-92
2023/09/04 06:36:04;;;;;;;10.73;8.30;;;17.30;1.00;;;;;;4941187;28;20543;-92
2023/09/04 06:38:30;;;;;;;8.57;7.78;;;17.50;1.00;;;;;;4940657;28;20055;-92
2023/09/04 06:40:58;;;;;;;7.95;7.10;;;17.60;1.00;;;;;;4941035;28;20050;-91
2023/09/04 06:43:28;;;;;;;9.05;8.25;;;16.90;1.00;;;;;;4940921;28;20556;-91
2023/09/04 06:45:54;;;;;;;10.23;7.65;;;17.90;1.00;;;;;;4940826;28;20051;-91
2023/09/04 06:48:28;;;;;;;8.77;7.82;;;17.10;1.00;;;;;;4940523;28;20046;-91
2023/09/04 06:50:56;;;;;;;8.27;7.47;;;18.30;1.00;;;;;;4925877;28;20046;-91
2023/09/04 06:53:25;;;;;;;8.07;7.10;;;18.40;1.00;;;;;;4940370;28;20054;-92
2023/09/04 06:55:56;;;;;;;8.20;7.47;;;18.60;1.00;;;;;;4940549;28;20538;-90
2023/09/04 06:58:26;;;;;;;8.65;7.85;;;18.80;1.00;;;;;;4940856;28;20090;-91
2023/09/04 07:00:58;;;;;;;7.72;6.95;;;19.00;1.00;;;;;;4956764;28;20130;-91
2023/09/04 07:03:26;;;;;;;9.30;8.40;;;19.30;1.00;;;;;;4956246;28;20043;-90
2023/09/04 07:05:52;;;;;;;10.63;7.50;;;19.60;1.00;;;;;;4939823;28;20130;-90
2023/09/04 07:08:18;;;;;;;9.02;8.13;;;19.70;1.00;;;;;;4940374;28;20085;-91
2023/09/04 07:10:44;;;;;;;9.70;8.65;;;19.90;99.90;;;;;;4956853;28;20043;-91
2023/09/04 07:13:18;;;;;;;11.00;8.45;;;20.20;99.90;;;;;;4939879;28;20047;-91
2023/09/04 07:15:51;;;;;;;9.38;8.43;;;20.30;99.90;;;;;;4924770;28;20106;-91
2023/09/04 07:18:17;;;;;;;8.70;7.90;;;20.10;99.90;;;;;;4940013;28;20118;-91
2023/09/04 07:20:45;;;;;;;9.43;8.60;;;20.60;99.90;;;;;;4940205;28;20043;-91
2023/09/04 07:23:13;;;;;;;9.07;8.32;;;20.70;99.90;;;;;;4943895;28;20433;-91
2023/09/04 07:25:41;;;;;;;10.10;9.05;;;20.90;99.90;;;;;;4943780;28;20077;-91
2023/09/04 07:28:15;;;;;;;9.07;8.18;;;21.00;99.90;;;;;;4960018;28;20043;-91
2023/09/04 07:30:40;;;;;;;9.05;8.23;;;21.20;99.90;;;;;;4929376;28;20386;-91
2023/09/04 07:33:15;;;;;;;9.57;8.60;;;21.30;99.90;;;;;;4959955;28;20073;-91
2023/09/04 07:35:55;;;;;;;9.48;8.60;;;21.30;73.10;;;;;;4944004;28;20050;-91
2023/09/04 07:38:21;;;;;;;8.18;7.57;;;21.40;99.90;;;;;;4943327;28;20046;-91
2023/09/04 07:41:00;;;;;;;8.00;7.22;;;21.30;99.90;;;;;;4943762;28;20058;-91
2023/09/04 07:43:30;;;;;;;8.88;7.53;;;21.20;99.90;;;;;;4943407;28;20055;-91
2023/09/04 07:46:00;;;;;;;7.70;6.97;;;21.00;1.00;;;;;;4944785;28;20051;-92
2023/09/04 07:48:30;;;;;;;7.85;7.15;;;20.10;1.00;;;;;;4928618;28;20106;-91
2023/09/04 07:50:59;;;;;;;7.25;6.70;;;20.80;1.00;;;;;;4928945;28;20082;-91
2023/09/04 07:53:30;;;;;;;8.15;5.95;;;20.70;1.00;;;;;;4943217;28;20552;-91
2023/09/04 07:56:01;;;;;;;7.22;6.63;;;20.60;99.90;;;;;;4944598;28;20090;-91
2023/09/04 07:58:26;;;;;;;7.35;6.72;;;20.60;99.90;;;;;;4943318;28;20101;-92
2023/09/04 08:00:52;;;;;;;7.18;6.47;;;20.60;1.00;;;;;;4943264;28;20422;-91
2023/09/04 08:03:18;;;;;;;7.15;6.47;;;20.60;56.10;;;;;;4942925;28;20057;-91
2023/09/04 08:05:45;;;;;;;7.40;6.85;;;20.70;99.90;;;;;;4943024;28;20085;-91
2023/09/04 08:08:11;;;;;;;5.55;5.05;;;20.60;86.00;;;;;;4943465;28;20467;-91
2023/09/04 08:10:43;;;;;;;5.13;4.72;;;20.70;99.90;;;;;;4942814;28;20505;-91
2023/09/04 08:13:19;;;;;;;5.30;4.80;;;20.80;99.90;;;;;;4943332;28;20051;-91
2023/09/04 08:15:44;;;;;;;5.25;4.90;;;20.90;1.00;;;;;;4959235;28;20446;-91
2023/09/04 08:18:10;;;;;;;5.93;5.35;;;20.80;99.90;;;;;;4943185;28;20100;-92
2023/09/04 08:20:39;;;;;;;5.60;5.13;;;20.70;99.90;;;;;;4942725;28;20046;-91
2023/09/04 08:23:11;;;;;;;4.68;4.35;;;20.80;1.00;;;;;;4943746;28;20117;-91
2023/09/04 08:25:38;;;;;;;7.28;4.82;;;20.80;1.00;;;;;;4959322;28;20043;-92
2023/09/04 08:28:06;;;;;;;5.00;4.50;;;20.80;99.90;;;;;;4943272;28;20062;-91
2023/09/04 08:30:32;;;;;;;4.53;4.13;;;20.00;1.00;;;;;;4943111;28;20046;-91
2023/09/04 08:33:05;;;;;;;7.13;4.25;;;20.80;99.90;;;;;;4926299;28;20401;-92
2023/09/04 08:35:31;;;;;;;4.85;4.45;;;20.80;1.00;;;;;;4943244;28;20046;-91
2023/09/04 08:37:57;;;;;;;4.47;4.03;;;20.80;99.90;;;;;;4944673;28;20512;-91
2023/09/04 08:40:23;;;;;;;4.63;4.22;;;20.80;99.90;;;;;;4959277;28;20489;-92
2023/09/04 08:42:50;;;;;;;4.28;3.95;;;20.90;99.90;;;;;;4927709;28;20057;-91
2023/09/04 08:45:17;;;;;;;5.38;4.88;;;20.90;99.90;;;;;;4943053;28;20047;-92
2023/09/04 08:47:43;;;;;;;4.30;3.90;;;21.00;1.00;;;;;;4958508;28;20058;-91
2023/09/04 08:50:12;;;;;;;6.22;4.32;;;21.10;1.00;;;;;;4942888;28;20053;-91
2023/09/04 08:52:40;;;;;;;7.47;3.90;;;21.10;99.90;;;;;;4926757;28;20382;-92
2023/09/04 08:55:08;;;;;;;4.43;4.00;;;21.10;99.90;;;;;;4942393;28;20094;-92
2023/09/04 08:57:34;;;;;;;7.63;4.40;;;21.20;35.20;;;;;;4942067;28;20055;-92
2023/09/04 09:00:02;;;;;;;4.53;4.07;;;21.30;1.00;;;;;;4959030;28;20105;-92
2023/09/04 09:02:29;;;;;;;3.58;3.22;;;21.30;99.90;;;;;;4942068;28;20061;-92
2023/09/04 09:04:58;;;;;;;5.65;3.90;;;21.50;99.90;;;;;;4942320;28;20470;-92
2023/09/04 09:07:29;;;;;;;3.80;3.40;;;21.40;1.00;;;;;;4957751;28;20117;-92
2023/09/04 09:10:02;;;;;;;3.92;3.47;;;21.60;99.90;;;;;;4942170;28;20047;-92
2023/09/04 09:12:27;;;;;;;3.90;3.60;;;20.80;99.90;;;;;;4942030;28;20051;-92
2023/09/04 09:14:53;;;;;;;5.03;3.40;;;21.70;1.00;;;;;;4942042;28;20075;-92
2023/09/04 09:17:24;;;;;;;4.93;2.83;;;21.80;99.90;;;;;;4926397;28;20046;-93
2023/09/04 09:19:52;;;;;;;5.05;3.10;;;21.80;1.00;;;;;;4941642;28;20549;-90
2023/09/04 09:22:20;;;;;;;3.90;3.60;;;21.80;99.90;;;;;;4926446;28;20050;-90
2023/09/04 09:24:59;;;;;;;4.50;4.10;;;21.90;99.90;;;;;;4957692;28;20137;-90
2023/09/04 09:27:28;;;;;;;3.60;3.30;;;22.20;99.90;;;;;;4942188;28;20058;-90
2023/09/04 09:30:01;;;;;;;3.50;3.20;;;22.10;40.70;;;;;;4942095;28;20050;-90
2023/09/04 09:32:32;;;;;;;3.35;2.80;;;22.10;99.90;;;;;;4958065;28;20082;-90
2023/09/04 09:35:00;;;;;;;3.50;2.90;;;22.10;1.00;;;;;;4941756;28;20129;-93
2023/09/04 09:37:29;;;;;;;4.60;3.17;;;22.10;99.90;;;;;;4958049;28;20465;-93
2023/09/04 09:39:57;;;;;;;4.32;2.60;;;22.00;1.00;;;;;;4941824;28;20059;-92
2023/09/04 09:42:25;;;;;;;3.22;2.67;;;22.00;99.90;;;;;;4941668;28;20126;-91
2023/09/04 09:44:52;;;;;;;3.33;2.92;;;22.00;90.50;;;;;;4940917;28;20050;-92
2023/09/04 09:47:18;;;;;;;3.28;2.40;;;22.10;2.00;;;;;;4941639;28;20058;-92
2023/09/04 09:49:45;;;;;;;5.50;2.97;;;22.20;99.90;;;;;;4941091;28;20054;-92
2023/09/04 09:52:12;;;;;;;3.13;2.30;;;22.20;99.90;;;;;;4926080;28;20129;-93
2023/09/04 09:54:49;;;;;;;2.97;2.78;;;22.20;99.90;;;;;;4957291;28;20069;-92
2023/09/04 09:57:20;;;;;;;2.40;2.20;;;22.30;1.00;;;;;;4941288;28;20567;-89
2023/09/04 09:59:50;;;;;;;3.95;2.85;;;22.30;99.90;;;;;;4941725;28;20047;-89
2023/09/04 10:02:21;;;;;;;2.63;2.42;;;22.40;1.00;;;;;;4957693;28;20047;-90
2023/09/04 10:04:48;;;;;;;4.00;2.42;;;22.60;1.00;;;;;;4956981;28;20061;-90
2023/09/04 10:07:23;;;;;;;2.72;2.20;;;22.70;99.90;;;;;;4940882;28;20090;-92
2023/09/04 10:10:02;;;;;;;3.00;2.38;;;22.80;99.90;;;;;;4941244;28;20510;-92
2023/09/04 10:12:35;;;;;;;3.40;2.35;;;22.80;99.90;;;;;;4941506;28;20132;-93
2023/09/04 10:15:06;;;;;;;2.88;2.40;;;22.80;99.90;;;;;;4941110;28;20062;-91
2023/09/04 10:17:37;;;;;;;2.55;2.28;;;22.90;99.90;;;;;;4956808;28;20059;-90
2023/09/04 10:20:05;;;;;;;3.55;2.80;;;22.30;99.90;;;;;;4941559;28;20134;-90
2023/09/04 10:22:40;;;;;;;3.03;2.33;;;23.10;99.90;;;;;;4941454;28;20186;-90
2023/09/04 10:25:10;;;;;;;2.58;2.22;;;23.30;1.00;;;;;;4926375;28;20054;-90
2023/09/04 10:27:41;;;;;;;3.22;1.98;;;22.50;99.90;;;;;;4956797;28;20053;-89
2023/09/04 10:30:12;;;;;;;2.53;1.90;;;23.40;99.90;;;;;;4941029;28;20051;-90
2023/09/04 10:32:41;;;;;;;3.97;2.20;;;23.40;29.00;;;;;;4957201;28;20047;-89
2023/09/04 10:35:09;;;;;;;2.30;1.50;;;23.40;1.00;;;;;;4941172;28;20506;-90
2023/09/04 10:37:38;;;;;;;3.50;2.42;;;23.50;99.90;;;;;;4957095;28;20094;-90
2023/09/04 10:40:06;;;;;;;1.88;1.77;;;23.10;99.90;;;;;;4925771;28;20055;-91
2023/09/04 10:42:34;;;;;;;3.63;2.40;;;23.60;99.90;;;;;;4957054;28;20133;-90
2023/09/04 10:45:14;;;;;;;2.75;2.47;;;23.70;99.90;;;;;;4956579;28;20046;-90
2023/09/04 10:47:50;;;;;;;2.92;2.00;;;23.80;99.90;;;;;;4956279;28;20129;-90
2023/09/04 10:50:29;;;;;;;;;;;23.20;99.90;;;;;;4957574;28;20375;-90
2023/09/04 10:52:57;;;;;;;4.82;2.10;;;24.00;84.60;;;;;;4940495;28;19929;-91
2023/09/04 10:55:34;;;;;;;3.28;2.00;;;23.90;1.00;;;;;;4941128;28;20115;-90
2023/09/04 10:58:10;;;;;;;5.30;1.90;;;23.90;99.90;;;;;;4944137;28;20130;-92
2023/09/04 11:00:38;;;;;;;2.10;1.90;;;24.10;1.00;;;;;;4944310;28;20490;-93
2023/09/04 11:03:20;;;;;;;2.63;2.10;;;24.20;99.90;;;;;;4944818;28;20137;-93
2023/09/04 11:06:02;;;;;;;4.40;2.60;;;24.40;99.90;;;;;;4959669;28;20058;-92
2023/09/04 11:08:32;;;;;;;2.50;2.25;;;24.50;99.90;;;;;;4960354;28;20090;-92
2023/09/04 11:11:03;;;;;;;2.53;1.85;;;24.70;99.90;;;;;;4928411;28;20069;-93
2023/09/04 11:13:32;;;;;;;4.13;2.50;;;24.90;99.90;;;;;;4944747;28;20054;-90
2023/09/04 11:16:02;;;;;;;2.83;2.60;;;24.80;99.90;;;;;;4944058;28;20093;-90
2023/09/04 11:18:35;;;;;;;2.58;1.95;;;24.90;99.90;;;;;;4944467;28;20051;-90
2023/09/04 11:21:01;;;;;;;2.28;2.08;;;24.90;99.90;;;;;;4943837;28;20050;-90
2023/09/04 11:23:28;;;;;;;9.32;2.83;;;24.90;91.90;;;;;;4960420;28;20047;-90
2023/09/04 11:25:55;;;;;;;2.50;2.03;;;25.00;99.90;;;;;;4943819;28;20093;-90
2023/09/04 11:28:25;;;;;;;2.15;1.65;;;25.10;99.50;;;;;;4944003;28;20494;-90
2023/09/04 11:30:59;;;;;;;1.77;1.67;;;24.60;1.00;;;;;;4944066;28;20493;-91
2023/09/04 11:33:27;;;;;;;1.73;1.63;;;25.20;1.00;;;;;;4944413;28;20129;-91
2023/09/04 11:36:03;;;;;;;2.33;1.95;;;25.40;1.00;;;;;;4959797;28;20050;-90
2023/09/04 11:38:31;;;;;;;2.05;1.95;;;25.50;1.00;;;;;;4944266;28;20050;-91
2023/09/04 11:40:57;;;;;;;3.13;2.28;;;25.40;1.00;;;;;;4943821;28;20113;-90
2023/09/04 11:43:27;;;;;;;;;;;24.90;1.00;;;;;;4928997;28;20047;-91
2023/09/04 11:45:57;;;;;;;3.25;2.60;;;25.60;99.90;;;;;;4944008;28;19926;-92
2023/09/04 11:48:24;;;;;;;4.38;2.03;;;25.60;99.90;;;;;;4960045;28;20129;-91
2023/09/04 11:50:53;;;;;;;1.85;1.63;;;25.60;99.90;;;;;;4943802;28;20057;-94
2023/09/04 11:53:24;;;;;;;2.53;1.90;;;25.70;99.90;;;;;;4943910;28;20051;-92
2023/09/04 11:55:55;;;;;;;2.53;1.80;;;25.70;99.90;;;;;;4943371;28;20051;-91
2023/09/04 11:58:23;;;;;;;2.50;1.85;;;25.80;99.90;;;;;;4943516;28;20046;-91
2023/09/04 12:00:50;;;;;;;2.72;2.05;;;25.90;99.90;;;;;;4928084;28;20568;-90
2023/09/04 12:03:16;;;;;;;3.13;1.63;;;24.90;99.90;;;;;;4927931;28;20468;-91
2023/09/04 12:05:46;;;;;;;;;;;25.90;99.90;;;;;;4943936;28;20078;-91
2023/09/04 12:08:17;;;;;;;2.67;1.77;;;26.10;99.90;;;;;;4959373;28;20360;-93
2023/09/04 12:10:43;;;;;;;2.40;1.80;;;26.10;99.90;;;;;;4944255;28;20473;-94
2023/09/04 12:13:09;;;;;;;;;;;26.10;99.90;;;;;;4944193;28;20065;-91
2023/09/04 12:15:35;;;;;;;2.72;1.80;;;26.10;99.90;;;;;;4943578;28;19922;-92
2023/09/04 12:18:02;;;;;;;;;;;26.10;99.90;;;;;;4944138;28;20129;-91
2023/09/04 12:20:35;;;;;;;3.67;1.92;;;26.10;99.90;;;;;;4944727;28;19922;-91
2023/09/04 12:23:06;;;;;;;3.97;1.90;;;26.10;99.90;;;;;;4945270;28;20058;-91
2023/09/04 12:25:42;;;;;;;2.00;1.70;;;26.10;99.90;;;;;;4961815;28;20105;-90
2023/09/04 12:28:09;;;;;;;;;;;26.20;99.90;;;;;;4945435;28;20493;-91
2023/09/04 12:30:51;;;;;;;2.40;1.55;;;26.20;99.90;;;;;;4963176;28;19990;-92
2023/09/04 12:33:19;;;;;;;1.85;1.65;;;26.20;99.90;;;;;;4946257;28;20137;-90
2023/09/04 12:36:04;;;;;;;2.10;1.92;;;26.10;99.90;;;;;;4928750;28;20143;-90
2023/09/04 12:38:30;;;;;;;1.90;1.80;;;26.20;99.90;;;;;;4944603;28;20046;-94
2023/09/04 12:40:56;;;;;;;;;;;26.30;99.90;;;;;;4963210;28;20109;-91
2023/09/04 12:43:22;;;;;;;2.08;1.63;;;26.40;99.90;;;;;;4946815;28;20344;-92
2023/09/04 12:45:47;;;;;;;;;;;26.40;99.90;;;;;;4947325;28;20478;-91
2023/09/04 12:48:14;;;;;;;2.00;1.80;;;26.70;99.90;;;;;;4943853;28;19926;-91
2023/09/04 12:50:48;;;;;;;2.05;1.88;;;26.70;99.90;;;;;;4944730;28;20082;-91
2023/09/04 12:53:16;;;;;;;2.40;1.88;;;26.80;99.90;;;;;;4943762;28;20046;-91
2023/09/04 12:55:46;;;;;;;2.35;1.40;;;26.90;99.90;;;;;;4943238;28;20050;-91
2023/09/04 12:58:17;;;;;;;1.73;1.63;;;26.80;99.90;;;;;;4944098;28;20057;-92
2023/09/04 13:00:43;;;;;;;2.13;1.92;;;26.90;99.90;;;;;;4929212;28;20453;-92
2023/09/04 13:03:09;;;;;;;;;;;27.10;99.90;;;;;;4945139;28;20046;-92
2023/09/04 13:05:35;;;;;;;1.73;1.50;;;27.20;99.90;;;;;;4960263;28;19929;-92
2023/09/04 13:08:10;;;;;;;1.58;1.48;;;27.30;99.90;;;;;;4945737;28;20055;-91